sensor_id;sensor_type;location;lat;lon;timestamp;P1;durP1;ratioP1;P2;durP2;ratioP2
5085;SDS011;4715;51.660;7.082;2023-07-29T00:02:01;1.90;;;1.80;;
5085;SDS011;4715;51.660;7.082;2023-07-29T00:04:26;1.80;;;1.70;;
5085;SDS011;4715;51.660;7.082;2023-07-29T00:06:47;3.90;;;2.60;;
5085;SDS011;4715;51.660;7.082;2023-07-29T00:09:09;2.40;;;1.90;;
5085;SDS011;4715;51.660;7.082;2023-07-29T00:11:31;1.90;;;1.80;;
5085;SDS011;4715;51.660;7.082;2023-07-29T00:13:53;2.60;;;1.83;;
5085;SDS011;4715;51.660;7.082;2023-07-29T00:16:15;2.10;;;2.00;;
5085;SDS011;4715;51.660;7.082;2023-07-29T00:18:37;2.13;;;2.03;;
5085;SDS011;4715;51.660;7.082;2023-07-29T00:21:00;1.93;;;1.83;;
5085;SDS011;4715;51.660;7.082;2023-07-29T00:23:22;3.03;;;2.30;;
5085;SDS011;4715;51.660;7.082;2023-07-29T00:25:44;2.53;;;1.60;;
5085;SDS011;4715;51.660;7.082;2023-07-29T00:28:06;1.50;;;1.40;;
5085;SDS011;4715;51.660;7.082;2023-07-29T00:30:27;2.27;;;2.10;;
5085;SDS011;4715;51.660;7.082;2023-07-29T00:32:49;2.30;;;2.20;;
5085;SDS011;4715;51.660;7.082;2023-07-29T00:35:11;2.10;;;2.00;;
5085;SDS011;4715;51.660;7.082;2023-07-29T00:37:35;2.23;;;2.13;;
5085;SDS011;4715;51.660;7.082;2023-07-29T00:39:57;2.10;;;2.00;;
5085;SDS011;4715;51.660;7.082;2023-07-29T00:42:19;3.10;;;1.70;;
5085;SDS011;4715;51.660;7.082;2023-07-29T00:44:41;1.60;;;1.50;;
5085;SDS011;4715;51.660;7.082;2023-07-29T00:47:03;1.73;;;1.63;;
5085;SDS011;4715;51.660;7.082;2023-07-29T00:49:26;1.70;;;1.60;;
5085;SDS011;4715;51.660;7.082;2023-07-29T00:51:48;1.90;;;1.80;;
5085;SDS011;4715;51.660;7.082;2023-07-29T00:54:12;1.83;;;1.73;;
5085;SDS011;4715;51.660;7.082;2023-07-29T00:56:34;1.90;;;1.80;;
5085;SDS011;4715;51.660;7.082;2023-07-29T00:58:56;1.90;;;1.80;;
5085;SDS011;4715;51.660;7.082;2023-07-29T01:01:21;1.87;;;1.77;;
5085;SDS011;4715;51.660;7.082;2023-07-29T01:03:43;1.80;;;1.70;;
5085;SDS011;4715;51.660;7.082;2023-07-29T01:06:08;1.83;;;1.73;;
5085;SDS011;4715;51.660;7.082;2023-07-29T01:08:37;1.90;;;1.80;;
5085;SDS011;4715;51.660;7.082;2023-07-29T01:11:11;1.90;;;1.80;;
5085;SDS011;4715;51.660;7.082;2023-07-29T01:13:41;1.90;;;1.80;;
5085;SDS011;4715;51.660;7.082;2023-07-29T01:16:10;2.03;;;1.93;;
5085;SDS011;4715;51.660;7.082;2023-07-29T01:18:36;1.83;;;1.73;;
5085;SDS011;4715;51.660;7.082;2023-07-29T01:21:03;1.57;;;1.47;;
5085;SDS011;4715;51.660;7.082;2023-07-29T01:23:27;1.50;;;1.40;;
5085;SDS011;4715;51.660;7.082;2023-07-29T01:25:50;1.60;;;1.50;;
5085;SDS011;4715;51.660;7.082;2023-07-29T01:28:12;2.20;;;2.00;;
5085;SDS011;4715;51.660;7.082;2023-07-29T01:30:37;1.90;;;1.80;;
5085;SDS011;4715;51.660;7.082;2023-07-29T01:33:04;2.43;;;2.23;;
5085;SDS011;4715;51.660;7.082;2023-07-29T01:35:31;2.20;;;2.10;;
5085;SDS011;4715;51.660;7.082;2023-07-29T01:37:58;1.80;;;1.70;;
5085;SDS011;4715;51.660;7.082;2023-07-29T01:40:27;2.50;;;2.40;;
5085;SDS011;4715;51.660;7.082;2023-07-29T01:42:49;2.30;;;2.20;;
5085;SDS011;4715;51.660;7.082;2023-07-29T01:45:12;1.93;;;1.83;;
5085;SDS011;4715;51.660;7.082;2023-07-29T01:47:34;2.43;;;2.30;;
5085;SDS011;4715;51.660;7.082;2023-07-29T01:49:56;2.73;;;1.87;;
5085;SDS011;4715;51.660;7.082;2023-07-29T01:52:18;1.97;;;1.87;;
5085;SDS011;4715;51.660;7.082;2023-07-29T01:54:40;1.70;;;1.60;;
5085;SDS011;4715;51.660;7.082;2023-07-29T01:57:03;1.67;;;1.57;;
5085;SDS011;4715;51.660;7.082;2023-07-29T01:59:25;1.70;;;1.60;;
5085;SDS011;4715;51.660;7.082;2023-07-29T02:01:47;2.10;;;2.00;;
5085;SDS011;4715;51.660;7.082;2023-07-29T02:04:09;2.00;;;1.90;;
5085;SDS011;4715;51.660;7.082;2023-07-29T02:06:30;2.50;;;2.30;;
5085;SDS011;4715;51.660;7.082;2023-07-29T02:08:52;1.90;;;1.80;;
5085;SDS011;4715;51.660;7.082;2023-07-29T02:11:16;2.20;;;2.10;;
5085;SDS011;4715;51.660;7.082;2023-07-29T02:13:41;2.10;;;2.00;;
5085;SDS011;4715;51.660;7.082;2023-07-29T02:16:04;1.90;;;1.73;;
5085;SDS011;4715;51.660;7.082;2023-07-29T02:18:25;1.87;;;1.77;;
5085;SDS011;4715;51.660;7.082;2023-07-29T02:20:47;2.00;;;1.90;;
5085;SDS011;4715;51.660;7.082;2023-07-29T02:23:10;2.20;;;2.00;;
5085;SDS011;4715;51.660;7.082;2023-07-29T02:25:34;2.47;;;2.27;;
5085;SDS011;4715;51.660;7.082;2023-07-29T02:27:56;1.80;;;1.70;;
5085;SDS011;4715;51.660;7.082;2023-07-29T02:30:20;1.90;;;1.80;;
5085;SDS011;4715;51.660;7.082;2023-07-29T02:32:42;1.67;;;1.57;;
5085;SDS011;4715;51.660;7.082;2023-07-29T02:35:04;1.60;;;1.50;;
5085;SDS011;4715;51.660;7.082;2023-07-29T02:37:26;1.93;;;1.83;;
5085;SDS011;4715;51.660;7.082;2023-07-29T02:39:48;1.80;;;1.70;;
5085;SDS011;4715;51.660;7.082;2023-07-29T02:42:10;1.77;;;1.67;;
5085;SDS011;4715;51.660;7.082;2023-07-29T02:44:32;1.73;;;1.63;;
5085;SDS011;4715;51.660;7.082;2023-07-29T02:46:55;4.40;;;1.70;;
5085;SDS011;4715;51.660;7.082;2023-07-29T02:49:16;2.03;;;1.93;;
5085;SDS011;4715;51.660;7.082;2023-07-29T02:51:38;2.93;;;2.40;;
5085;SDS011;4715;51.660;7.082;2023-07-29T02:54:00;1.87;;;1.77;;
5085;SDS011;4715;51.660;7.082;2023-07-29T02:56:22;1.67;;;1.57;;
5085;SDS011;4715;51.660;7.082;2023-07-29T02:58:44;2.20;;;2.00;;
5085;SDS011;4715;51.660;7.082;2023-07-29T03:01:06;2.03;;;1.93;;
5085;SDS011;4715;51.660;7.082;2023-07-29T03:03:29;2.53;;;2.33;;
5085;SDS011;4715;51.660;7.082;2023-07-29T03:05:56;1.83;;;1.73;;
5085;SDS011;4715;51.660;7.082;2023-07-29T03:08:19;2.20;;;2.00;;
5085;SDS011;4715;51.660;7.082;2023-07-29T03:10:41;2.27;;;2.17;;
5085;SDS011;4715;51.660;7.082;2023-07-29T03:13:03;2.00;;;1.90;;
5085;SDS011;4715;51.660;7.082;2023-07-29T03:15:25;2.20;;;2.10;;
5085;SDS011;4715;51.660;7.082;2023-07-29T03:17:47;2.80;;;2.60;;
5085;SDS011;4715;51.660;7.082;2023-07-29T03:20:10;2.50;;;2.40;;
5085;SDS011;4715;51.660;7.082;2023-07-29T03:22:32;3.30;;;3.10;;
5085;SDS011;4715;51.660;7.082;2023-07-29T03:24:54;2.47;;;2.27;;
5085;SDS011;4715;51.660;7.082;2023-07-29T03:27:15;2.90;;;2.70;;
5085;SDS011;4715;51.660;7.082;2023-07-29T03:29:37;2.93;;;2.83;;
5085;SDS011;4715;51.660;7.082;2023-07-29T03:31:59;3.37;;;3.10;;
5085;SDS011;4715;51.660;7.082;2023-07-29T03:34:21;3.33;;;3.07;;
5085;SDS011;4715;51.660;7.082;2023-07-29T03:36:44;3.13;;;2.93;;
5085;SDS011;4715;51.660;7.082;2023-07-29T03:39:08;3.30;;;3.10;;
5085;SDS011;4715;51.660;7.082;2023-07-29T03:41:30;4.20;;;3.90;;
5085;SDS011;4715;51.660;7.082;2023-07-29T03:43:52;3.60;;;3.40;;
5085;SDS011;4715;51.660;7.082;2023-07-29T03:46:14;4.20;;;3.90;;
5085;SDS011;4715;51.660;7.082;2023-07-29T03:48:39;6.03;;;5.53;;
5085;SDS011;4715;51.660;7.082;2023-07-29T03:51:01;3.90;;;3.60;;
5085;SDS011;4715;51.660;7.082;2023-07-29T03:53:24;5.47;;;3.93;;
5085;SDS011;4715;51.660;7.082;2023-07-29T03:55:46;4.30;;;4.00;;
5085;SDS011;4715;51.660;7.082;2023-07-29T03:58:10;3.27;;;3.07;;
5085;SDS011;4715;51.660;7.082;2023-07-29T04:00:31;5.20;;;4.00;;
5085;SDS011;4715;51.660;7.082;2023-07-29T04:02:53;4.00;;;3.70;;
5085;SDS011;4715;51.660;7.082;2023-07-29T04:05:15;4.90;;;4.60;;
5085;SDS011;4715;51.660;7.082;2023-07-29T04:07:37;5.13;;;4.57;;
5085;SDS011;4715;51.660;7.082;2023-07-29T04:10:01;5.77;;;3.10;;
5085;SDS011;4715;51.660;7.082;2023-07-29T04:12:22;3.43;;;3.13;;
5085;SDS011;4715;51.660;7.082;2023-07-29T04:14:44;3.50;;;3.30;;
5085;SDS011;4715;51.660;7.082;2023-07-29T04:17:06;3.97;;;3.57;;
5085;SDS011;4715;51.660;7.082;2023-07-29T04:19:28;3.83;;;3.60;;
5085;SDS011;4715;51.660;7.082;2023-07-29T04:21:50;3.47;;;3.27;;
5085;SDS011;4715;51.660;7.082;2023-07-29T04:24:12;4.20;;;3.63;;
5085;SDS011;4715;51.660;7.082;2023-07-29T04:26:35;3.43;;;3.13;;
5085;SDS011;4715;51.660;7.082;2023-07-29T04:28:59;4.40;;;3.20;;
5085;SDS011;4715;51.660;7.082;2023-07-29T04:31:20;3.90;;;3.63;;
5085;SDS011;4715;51.660;7.082;2023-07-29T04:33:42;3.17;;;2.97;;
5085;SDS011;4715;51.660;7.082;2023-07-29T04:36:04;2.77;;;2.57;;
5085;SDS011;4715;51.660;7.082;2023-07-29T04:38:30;2.97;;;2.77;;
5085;SDS011;4715;51.660;7.082;2023-07-29T04:40:53;3.33;;;3.13;;
5085;SDS011;4715;51.660;7.082;2023-07-29T04:43:16;3.13;;;2.90;;
5085;SDS011;4715;51.660;7.082;2023-07-29T04:45:41;3.00;;;2.60;;
5085;SDS011;4715;51.660;7.082;2023-07-29T04:48:04;2.77;;;2.63;;
5085;SDS011;4715;51.660;7.082;2023-07-29T04:50:26;3.00;;;2.80;;
5085;SDS011;4715;51.660;7.082;2023-07-29T04:52:48;2.70;;;2.43;;
5085;SDS011;4715;51.660;7.082;2023-07-29T04:55:10;2.90;;;2.70;;
5085;SDS011;4715;51.660;7.082;2023-07-29T04:57:31;2.70;;;2.60;;
5085;SDS011;4715;51.660;7.082;2023-07-29T04:59:55;2.40;;;2.30;;
5085;SDS011;4715;51.660;7.082;2023-07-29T05:02:16;2.73;;;2.53;;
5085;SDS011;4715;51.660;7.082;2023-07-29T05:04:38;2.67;;;2.57;;
5085;SDS011;4715;51.660;7.082;2023-07-29T05:07:00;2.77;;;2.67;;
5085;SDS011;4715;51.660;7.082;2023-07-29T05:09:22;3.27;;;3.00;;
5085;SDS011;4715;51.660;7.082;2023-07-29T05:11:44;3.00;;;2.73;;
5085;SDS011;4715;51.660;7.082;2023-07-29T05:14:07;3.40;;;3.20;;
5085;SDS011;4715;51.660;7.082;2023-07-29T05:16:31;7.63;;;3.83;;
5085;SDS011;4715;51.660;7.082;2023-07-29T05:18:52;3.50;;;3.20;;
5085;SDS011;4715;51.660;7.082;2023-07-29T05:21:14;4.23;;;4.03;;
5085;SDS011;4715;51.660;7.082;2023-07-29T05:23:36;4.70;;;4.27;;
5085;SDS011;4715;51.660;7.082;2023-07-29T05:25:58;5.10;;;4.57;;
5085;SDS011;4715;51.660;7.082;2023-07-29T05:28:20;5.93;;;3.83;;
5085;SDS011;4715;51.660;7.082;2023-07-29T05:30:43;4.60;;;4.30;;
5085;SDS011;4715;51.660;7.082;2023-07-29T05:33:06;6.77;;;5.73;;
5085;SDS011;4715;51.660;7.082;2023-07-29T05:35:28;5.17;;;4.50;;
5085;SDS011;4715;51.660;7.082;2023-07-29T05:37:50;6.37;;;5.87;;
5085;SDS011;4715;51.660;7.082;2023-07-29T05:40:12;6.10;;;5.60;;
5085;SDS011;4715;51.660;7.082;2023-07-29T05:42:34;7.10;;;5.80;;
5085;SDS011;4715;51.660;7.082;2023-07-29T05:44:56;5.90;;;5.40;;
5085;SDS011;4715;51.660;7.082;2023-07-29T05:47:18;5.93;;;5.53;;
5085;SDS011;4715;51.660;7.082;2023-07-29T05:49:41;6.60;;;6.00;;
5085;SDS011;4715;51.660;7.082;2023-07-29T05:52:03;6.57;;;6.07;;
5085;SDS011;4715;51.660;7.082;2023-07-29T05:54:25;6.70;;;6.10;;
5085;SDS011;4715;51.660;7.082;2023-07-29T05:56:47;7.10;;;6.33;;
5085;SDS011;4715;51.660;7.082;2023-07-29T05:59:08;7.10;;;6.57;;
5085;SDS011;4715;51.660;7.082;2023-07-29T06:01:31;6.27;;;5.87;;
5085;SDS011;4715;51.660;7.082;2023-07-29T06:03:53;6.67;;;5.00;;
5085;SDS011;4715;51.660;7.082;2023-07-29T06:06:16;6.17;;;5.57;;
5085;SDS011;4715;51.660;7.082;2023-07-29T06:08:38;5.80;;;5.30;;
5085;SDS011;4715;51.660;7.082;2023-07-29T06:11:01;5.10;;;4.80;;
5085;SDS011;4715;51.660;7.082;2023-07-29T06:13:23;5.80;;;5.00;;
5085;SDS011;4715;51.660;7.082;2023-07-29T06:15:45;5.17;;;4.73;;
5085;SDS011;4715;51.660;7.082;2023-07-29T06:18:06;4.10;;;3.80;;
5085;SDS011;4715;51.660;7.082;2023-07-29T06:20:28;4.10;;;3.80;;
5085;SDS011;4715;51.660;7.082;2023-07-29T06:22:52;3.33;;;3.13;;
5085;SDS011;4715;51.660;7.082;2023-07-29T06:25:13;4.13;;;3.83;;
5085;SDS011;4715;51.660;7.082;2023-07-29T06:27:35;3.50;;;3.30;;
5085;SDS011;4715;51.660;7.082;2023-07-29T06:29:57;3.80;;;3.50;;
5085;SDS011;4715;51.660;7.082;2023-07-29T06:32:19;3.00;;;2.80;;
5085;SDS011;4715;51.660;7.082;2023-07-29T06:34:41;3.00;;;2.80;;
5085;SDS011;4715;51.660;7.082;2023-07-29T06:37:03;2.90;;;2.70;;
5085;SDS011;4715;51.660;7.082;2023-07-29T06:39:28;2.90;;;2.70;;
5085;SDS011;4715;51.660;7.082;2023-07-29T06:41:50;2.70;;;2.50;;
5085;SDS011;4715;51.660;7.082;2023-07-29T06:44:12;2.93;;;2.73;;
5085;SDS011;4715;51.660;7.082;2023-07-29T06:46:34;2.40;;;2.20;;
5085;SDS011;4715;51.660;7.082;2023-07-29T06:48:55;3.10;;;2.20;;
5085;SDS011;4715;51.660;7.082;2023-07-29T06:51:17;2.60;;;2.40;;
5085;SDS011;4715;51.660;7.082;2023-07-29T06:53:39;3.50;;;2.37;;
5085;SDS011;4715;51.660;7.082;2023-07-29T06:56:02;2.87;;;2.47;;
5085;SDS011;4715;51.660;7.082;2023-07-29T06:58:24;2.97;;;2.63;;
5085;SDS011;4715;51.660;7.082;2023-07-29T07:00:46;4.17;;;3.07;;
5085;SDS011;4715;51.660;7.082;2023-07-29T07:03:08;3.40;;;3.10;;
5085;SDS011;4715;51.660;7.082;2023-07-29T07:05:30;6.63;;;2.60;;
5085;SDS011;4715;51.660;7.082;2023-07-29T07:07:52;3.00;;;2.40;;
5085;SDS011;4715;51.660;7.082;2023-07-29T07:10:14;2.90;;;2.70;;
5085;SDS011;4715;51.660;7.082;2023-07-29T07:12:37;2.77;;;2.57;;
5085;SDS011;4715;51.660;7.082;2023-07-29T07:14:59;2.43;;;2.23;;
5085;SDS011;4715;51.660;7.082;2023-07-29T07:17:21;2.70;;;2.50;;
5085;SDS011;4715;51.660;7.082;2023-07-29T07:19:43;1.80;;;1.70;;
5085;SDS011;4715;51.660;7.082;2023-07-29T07:22:06;1.50;;;1.33;;
5085;SDS011;4715;51.660;7.082;2023-07-29T07:24:28;1.60;;;1.50;;
5085;SDS011;4715;51.660;7.082;2023-07-29T07:26:49;1.90;;;1.80;;
5085;SDS011;4715;51.660;7.082;2023-07-29T07:29:13;1.70;;;1.60;;
5085;SDS011;4715;51.660;7.082;2023-07-29T07:31:35;2.00;;;1.90;;
5085;SDS011;4715;51.660;7.082;2023-07-29T07:33:57;5.43;;;3.90;;
5085;SDS011;4715;51.660;7.082;2023-07-29T07:36:18;2.53;;;2.33;;
5085;SDS011;4715;51.660;7.082;2023-07-29T07:38:40;2.07;;;1.97;;
5085;SDS011;4715;51.660;7.082;2023-07-29T07:41:02;1.70;;;1.60;;
5085;SDS011;4715;51.660;7.082;2023-07-29T07:43:30;2.00;;;1.90;;
5085;SDS011;4715;51.660;7.082;2023-07-29T07:45:58;1.70;;;1.60;;
5085;SDS011;4715;51.660;7.082;2023-07-29T07:48:21;1.50;;;1.40;;
5085;SDS011;4715;51.660;7.082;2023-07-29T07:50:42;1.20;;;1.20;;
5085;SDS011;4715;51.660;7.082;2023-07-29T07:53:04;1.97;;;1.87;;
5085;SDS011;4715;51.660;7.082;2023-07-29T07:55:28;1.63;;;1.53;;
5085;SDS011;4715;51.660;7.082;2023-07-29T07:57:50;1.40;;;1.30;;
5085;SDS011;4715;51.660;7.082;2023-07-29T08:00:12;1.40;;;1.30;;
5085;SDS011;4715;51.660;7.082;2023-07-29T08:02:37;1.67;;;1.57;;
5085;SDS011;4715;51.660;7.082;2023-07-29T08:04:58;1.40;;;1.30;;
5085;SDS011;4715;51.660;7.082;2023-07-29T08:07:20;1.63;;;1.53;;
5085;SDS011;4715;51.660;7.082;2023-07-29T08:09:42;1.77;;;1.37;;
5085;SDS011;4715;51.660;7.082;2023-07-29T08:12:05;2.03;;;1.93;;
5085;SDS011;4715;51.660;7.082;2023-07-29T08:14:29;1.40;;;1.30;;
5085;SDS011;4715;51.660;7.082;2023-07-29T08:16:51;4.17;;;3.67;;
5085;SDS011;4715;51.660;7.082;2023-07-29T08:19:14;1.50;;;1.40;;
5085;SDS011;4715;51.660;7.082;2023-07-29T08:21:36;1.37;;;1.27;;
5085;SDS011;4715;51.660;7.082;2023-07-29T08:23:58;3.47;;;1.60;;
5085;SDS011;4715;51.660;7.082;2023-07-29T08:26:20;1.30;;;1.20;;
5085;SDS011;4715;51.660;7.082;2023-07-29T08:28:42;1.57;;;1.47;;
5085;SDS011;4715;51.660;7.082;2023-07-29T08:31:04;3.40;;;1.60;;
5085;SDS011;4715;51.660;7.082;2023-07-29T08:33:27;1.47;;;1.37;;
5085;SDS011;4715;51.660;7.082;2023-07-29T08:35:50;2.90;;;1.70;;
5085;SDS011;4715;51.660;7.082;2023-07-29T08:38:12;1.60;;;1.50;;
5085;SDS011;4715;51.660;7.082;2023-07-29T08:40:34;2.40;;;1.57;;
5085;SDS011;4715;51.660;7.082;2023-07-29T08:42:58;4.63;;;1.70;;
5085;SDS011;4715;51.660;7.082;2023-07-29T08:45:24;1.57;;;1.47;;
5085;SDS011;4715;51.660;7.082;2023-07-29T08:47:46;1.23;;;1.17;;
5085;SDS011;4715;51.660;7.082;2023-07-29T08:50:11;1.63;;;1.47;;
5085;SDS011;4715;51.660;7.082;2023-07-29T08:52:36;1.53;;;1.20;;
5085;SDS011;4715;51.660;7.082;2023-07-29T08:54:59;1.53;;;1.43;;
5085;SDS011;4715;51.660;7.082;2023-07-29T08:57:23;1.80;;;1.70;;
5085;SDS011;4715;51.660;7.082;2023-07-29T08:59:46;1.33;;;1.23;;
5085;SDS011;4715;51.660;7.082;2023-07-29T09:02:07;1.47;;;1.37;;
5085;SDS011;4715;51.660;7.082;2023-07-29T09:04:29;1.40;;;1.30;;
5085;SDS011;4715;51.660;7.082;2023-07-29T09:06:51;1.30;;;1.20;;
5085;SDS011;4715;51.660;7.082;2023-07-29T09:09:18;1.00;;;1.00;;
5085;SDS011;4715;51.660;7.082;2023-07-29T09:11:42;1.80;;;1.70;;
5085;SDS011;4715;51.660;7.082;2023-07-29T09:14:04;1.37;;;1.27;;
5085;SDS011;4715;51.660;7.082;2023-07-29T09:16:27;1.23;;;1.10;;
5085;SDS011;4715;51.660;7.082;2023-07-29T09:18:49;1.50;;;1.40;;
5085;SDS011;4715;51.660;7.082;2023-07-29T09:21:11;1.83;;;1.07;;
5085;SDS011;4715;51.660;7.082;2023-07-29T09:23:41;1.33;;;1.23;;
5085;SDS011;4715;51.660;7.082;2023-07-29T09:26:05;1.10;;;1.10;;
5085;SDS011;4715;51.660;7.082;2023-07-29T09:28:27;1.20;;;1.10;;
5085;SDS011;4715;51.660;7.082;2023-07-29T09:30:54;0.90;;;0.90;;
5085;SDS011;4715;51.660;7.082;2023-07-29T09:33:17;1.23;;;1.20;;
5085;SDS011;4715;51.660;7.082;2023-07-29T09:35:39;1.10;;;1.10;;
5085;SDS011;4715;51.660;7.082;2023-07-29T09:38:01;0.90;;;0.90;;
5085;SDS011;4715;51.660;7.082;2023-07-29T09:40:23;1.40;;;1.30;;
5085;SDS011;4715;51.660;7.082;2023-07-29T09:42:50;5.50;;;2.30;;
5085;SDS011;4715;51.660;7.082;2023-07-29T09:45:14;1.23;;;1.13;;
5085;SDS011;4715;51.660;7.082;2023-07-29T09:47:41;1.30;;;1.20;;
5085;SDS011;4715;51.660;7.082;2023-07-29T09:50:07;1.10;;;1.10;;
5085;SDS011;4715;51.660;7.082;2023-07-29T09:52:31;2.03;;;1.47;;
5085;SDS011;4715;51.660;7.082;2023-07-29T09:54:53;1.00;;;1.00;;
5085;SDS011;4715;51.660;7.082;2023-07-29T09:57:16;2.30;;;1.40;;
5085;SDS011;4715;51.660;7.082;2023-07-29T09:59:40;1.17;;;1.10;;
5085;SDS011;4715;51.660;7.082;2023-07-29T10:02:04;1.80;;;1.47;;
5085;SDS011;4715;51.660;7.082;2023-07-29T10:04:31;1.20;;;1.10;;
5085;SDS011;4715;51.660;7.082;2023-07-29T10:06:54;2.70;;;1.80;;
5085;SDS011;4715;51.660;7.082;2023-07-29T10:09:17;1.50;;;1.40;;
5085;SDS011;4715;51.660;7.082;2023-07-29T10:11:41;2.20;;;1.23;;
5085;SDS011;4715;51.660;7.082;2023-07-29T10:14:03;1.20;;;1.20;;
5085;SDS011;4715;51.660;7.082;2023-07-29T10:16:26;2.07;;;1.97;;
5085;SDS011;4715;51.660;7.082;2023-07-29T10:18:49;1.77;;;1.53;;
5085;SDS011;4715;51.660;7.082;2023-07-29T10:21:13;3.93;;;3.63;;
5085;SDS011;4715;51.660;7.082;2023-07-29T10:23:37;5.73;;;4.30;;
5085;SDS011;4715;51.660;7.082;2023-07-29T10:26:02;2.53;;;2.43;;
5085;SDS011;4715;51.660;7.082;2023-07-29T10:28:25;7.20;;;6.50;;
5085;SDS011;4715;51.660;7.082;2023-07-29T10:30:49;4.47;;;4.17;;
5085;SDS011;4715;51.660;7.082;2023-07-29T10:33:13;36.77;;;21.77;;
5085;SDS011;4715;51.660;7.082;2023-07-29T10:35:35;24.67;;;18.10;;
5085;SDS011;4715;51.660;7.082;2023-07-29T10:37:58;14.43;;;11.50;;
5085;SDS011;4715;51.660;7.082;2023-07-29T10:40:21;6.90;;;6.20;;
5085;SDS011;4715;51.660;7.082;2023-07-29T10:42:58;5.23;;;4.83;;
5085;SDS011;4715;51.660;7.082;2023-07-29T10:45:22;4.13;;;3.10;;
5085;SDS011;4715;51.660;7.082;2023-07-29T10:47:45;2.20;;;2.10;;
5085;SDS011;4715;51.660;7.082;2023-07-29T10:50:16;1.87;;;1.77;;
5085;SDS011;4715;51.660;7.082;2023-07-29T10:52:39;1.90;;;1.80;;
5085;SDS011;4715;51.660;7.082;2023-07-29T10:55:03;1.80;;;1.70;;
5085;SDS011;4715;51.660;7.082;2023-07-29T10:57:43;1.60;;;1.50;;
5085;SDS011;4715;51.660;7.082;2023-07-29T11:00:09;2.13;;;1.90;;
5085;SDS011;4715;51.660;7.082;2023-07-29T11:02:32;1.80;;;1.70;;
5085;SDS011;4715;51.660;7.082;2023-07-29T11:04:56;1.30;;;1.30;;
5085;SDS011;4715;51.660;7.082;2023-07-29T11:07:32;1.50;;;1.40;;
5085;SDS011;4715;51.660;7.082;2023-07-29T11:10:05;1.57;;;1.40;;
5085;SDS011;4715;51.660;7.082;2023-07-29T11:12:38;1.50;;;1.40;;
5085;SDS011;4715;51.660;7.082;2023-07-29T11:15:03;2.23;;;1.60;;
5085;SDS011;4715;51.660;7.082;2023-07-29T11:17:26;1.70;;;1.60;;
5085;SDS011;4715;51.660;7.082;2023-07-29T11:19:48;1.60;;;1.50;;
5085;SDS011;4715;51.660;7.082;2023-07-29T11:22:16;1.53;;;1.43;;
5085;SDS011;4715;51.660;7.082;2023-07-29T11:24:42;1.73;;;1.63;;
5085;SDS011;4715;51.660;7.082;2023-07-29T11:27:04;2.10;;;1.90;;
5085;SDS011;4715;51.660;7.082;2023-07-29T11:29:28;1.60;;;1.50;;
5085;SDS011;4715;51.660;7.082;2023-07-29T11:31:53;1.53;;;1.43;;
5085;SDS011;4715;51.660;7.082;2023-07-29T11:34:15;1.60;;;1.50;;
5085;SDS011;4715;51.660;7.082;2023-07-29T11:36:44;1.90;;;1.80;;
5085;SDS011;4715;51.660;7.082;2023-07-29T11:39:09;3.43;;;1.63;;
5085;SDS011;4715;51.660;7.082;2023-07-29T11:41:40;1.70;;;1.60;;
5085;SDS011;4715;51.660;7.082;2023-07-29T11:44:04;1.70;;;1.60;;
5085;SDS011;4715;51.660;7.082;2023-07-29T11:46:30;1.97;;;1.63;;
5085;SDS011;4715;51.660;7.082;2023-07-29T11:48:53;1.63;;;1.53;;
5085;SDS011;4715;51.660;7.082;2023-07-29T11:51:18;1.67;;;1.57;;
5085;SDS011;4715;51.660;7.082;2023-07-29T11:53:46;1.43;;;1.43;;
5085;SDS011;4715;51.660;7.082;2023-07-29T11:56:08;1.67;;;1.53;;
5085;SDS011;4715;51.660;7.082;2023-07-29T11:58:32;1.40;;;1.30;;
5085;SDS011;4715;51.660;7.082;2023-07-29T12:00:55;1.60;;;1.50;;
5085;SDS011;4715;51.660;7.082;2023-07-29T12:03:17;1.70;;;1.60;;
5085;SDS011;4715;51.660;7.082;2023-07-29T12:05:39;1.70;;;1.60;;
5085;SDS011;4715;51.660;7.082;2023-07-29T12:08:03;1.67;;;1.57;;
5085;SDS011;4715;51.660;7.082;2023-07-29T12:10:25;1.53;;;1.47;;
5085;SDS011;4715;51.660;7.082;2023-07-29T12:12:48;1.33;;;1.23;;
5085;SDS011;4715;51.660;7.082;2023-07-29T12:15:12;1.50;;;1.40;;
5085;SDS011;4715;51.660;7.082;2023-07-29T12:17:37;1.90;;;1.80;;
5085;SDS011;4715;51.660;7.082;2023-07-29T12:20:02;1.77;;;1.67;;
5085;SDS011;4715;51.660;7.082;2023-07-29T12:22:24;2.00;;;1.73;;
5085;SDS011;4715;51.660;7.082;2023-07-29T12:24:46;1.90;;;1.80;;
5085;SDS011;4715;51.660;7.082;2023-07-29T12:27:12;1.80;;;1.70;;
5085;SDS011;4715;51.660;7.082;2023-07-29T12:29:39;2.17;;;2.03;;
5085;SDS011;4715;51.660;7.082;2023-07-29T12:32:03;1.63;;;1.53;;
5085;SDS011;4715;51.660;7.082;2023-07-29T12:34:27;1.87;;;1.77;;
5085;SDS011;4715;51.660;7.082;2023-07-29T12:36:50;2.43;;;2.30;;
5085;SDS011;4715;51.660;7.082;2023-07-29T12:39:16;1.90;;;1.80;;
5085;SDS011;4715;51.660;7.082;2023-07-29T12:41:39;3.73;;;2.57;;
5085;SDS011;4715;51.660;7.082;2023-07-29T12:44:01;2.70;;;2.50;;
5085;SDS011;4715;51.660;7.082;2023-07-29T12:46:29;2.70;;;2.50;;
5085;SDS011;4715;51.660;7.082;2023-07-29T12:48:52;2.47;;;2.37;;
5085;SDS011;4715;51.660;7.082;2023-07-29T12:51:14;2.60;;;2.40;;
5085;SDS011;4715;51.660;7.082;2023-07-29T12:53:36;4.03;;;2.83;;
5085;SDS011;4715;51.660;7.082;2023-07-29T12:55:57;2.30;;;2.10;;
5085;SDS011;4715;51.660;7.082;2023-07-29T12:58:21;2.60;;;2.40;;
5085;SDS011;4715;51.660;7.082;2023-07-29T13:00:43;2.23;;;2.13;;
5085;SDS011;4715;51.660;7.082;2023-07-29T13:03:04;3.43;;;2.50;;
5085;SDS011;4715;51.660;7.082;2023-07-29T13:05:28;2.73;;;2.60;;
5085;SDS011;4715;51.660;7.082;2023-07-29T13:07:50;2.87;;;2.30;;
5085;SDS011;4715;51.660;7.082;2023-07-29T13:10:12;2.60;;;2.40;;
5085;SDS011;4715;51.660;7.082;2023-07-29T13:12:34;2.13;;;2.03;;
5085;SDS011;4715;51.660;7.082;2023-07-29T13:14:56;4.37;;;3.20;;
5085;SDS011;4715;51.660;7.082;2023-07-29T13:17:18;2.50;;;2.40;;
5085;SDS011;4715;51.660;7.082;2023-07-29T13:19:41;2.30;;;2.20;;
5085;SDS011;4715;51.660;7.082;2023-07-29T13:22:05;2.50;;;2.13;;
5085;SDS011;4715;51.660;7.082;2023-07-29T13:24:27;1.90;;;1.80;;
5085;SDS011;4715;51.660;7.082;2023-07-29T13:26:49;2.07;;;1.97;;
5085;SDS011;4715;51.660;7.082;2023-07-29T13:29:11;2.27;;;2.07;;
5085;SDS011;4715;51.660;7.082;2023-07-29T13:31:33;1.93;;;1.83;;
5085;SDS011;4715;51.660;7.082;2023-07-29T13:33:55;2.37;;;2.20;;
5085;SDS011;4715;51.660;7.082;2023-07-29T13:36:17;2.00;;;1.90;;
5085;SDS011;4715;51.660;7.082;2023-07-29T13:38:41;2.30;;;1.60;;
5085;SDS011;4715;51.660;7.082;2023-07-29T13:41:02;2.03;;;1.93;;
5085;SDS011;4715;51.660;7.082;2023-07-29T13:43:24;1.90;;;1.80;;
5085;SDS011;4715;51.660;7.082;2023-07-29T13:45:46;1.73;;;1.63;;
5085;SDS011;4715;51.660;7.082;2023-07-29T13:48:10;1.77;;;1.67;;
5085;SDS011;4715;51.660;7.082;2023-07-29T13:50:32;2.00;;;1.90;;
5085;SDS011;4715;51.660;7.082;2023-07-29T13:52:53;1.60;;;1.50;;
5085;SDS011;4715;51.660;7.082;2023-07-29T13:55:19;5.10;;;2.20;;
5085;SDS011;4715;51.660;7.082;2023-07-29T13:57:41;3.03;;;2.30;;
5085;SDS011;4715;51.660;7.082;2023-07-29T14:00:05;2.70;;;2.33;;
5085;SDS011;4715;51.660;7.082;2023-07-29T14:02:28;3.70;;;2.17;;
5085;SDS011;4715;51.660;7.082;2023-07-29T14:04:51;1.97;;;1.83;;
5085;SDS011;4715;51.660;7.082;2023-07-29T14:07:12;3.03;;;2.00;;
5085;SDS011;4715;51.660;7.082;2023-07-29T14:09:34;3.57;;;2.43;;
5085;SDS011;4715;51.660;7.082;2023-07-29T14:11:58;2.37;;;2.20;;
5085;SDS011;4715;51.660;7.082;2023-07-29T14:14:20;1.70;;;1.60;;
5085;SDS011;4715;51.660;7.082;2023-07-29T14:16:43;2.80;;;2.60;;
5085;SDS011;4715;51.660;7.082;2023-07-29T14:19:05;2.63;;;2.13;;
5085;SDS011;4715;51.660;7.082;2023-07-29T14:21:28;2.33;;;2.17;;
5085;SDS011;4715;51.660;7.082;2023-07-29T14:23:50;1.97;;;1.87;;
5085;SDS011;4715;51.660;7.082;2023-07-29T14:26:19;1.70;;;1.60;;
5085;SDS011;4715;51.660;7.082;2023-07-29T14:28:42;1.70;;;1.60;;
5085;SDS011;4715;51.660;7.082;2023-07-29T14:31:04;1.50;;;1.40;;
5085;SDS011;4715;51.660;7.082;2023-07-29T14:33:26;1.60;;;1.50;;
5085;SDS011;4715;51.660;7.082;2023-07-29T14:35:50;1.50;;;1.40;;
5085;SDS011;4715;51.660;7.082;2023-07-29T14:38:12;1.73;;;1.63;;
5085;SDS011;4715;51.660;7.082;2023-07-29T14:40:35;1.60;;;1.33;;
5085;SDS011;4715;51.660;7.082;2023-07-29T14:42:57;1.70;;;1.60;;
5085;SDS011;4715;51.660;7.082;2023-07-29T14:45:22;1.33;;;1.23;;
5085;SDS011;4715;51.660;7.082;2023-07-29T14:47:44;1.70;;;1.60;;
5085;SDS011;4715;51.660;7.082;2023-07-29T14:50:06;1.87;;;1.77;;